Main page
METAR-TAF:

METAR-TAF

Airports :

Pattimura Airport

Ambon, Indonesia

latitude: 03-42S, longitude: 128-05E, elevation: 12 m

Current weather observation

The report was made 30 minutes ago, at 17:30 UTC
Wind 6 kt from the North/Northeast
Temperature 26°C
Humidity 89%
Pressure 1010 hPa
Visibility 10 km or more
Scattered clouds at a height of 1700 ft

METAR: WAPP 031730Z 03006KT 9999 SCT017 26/24 Q1010 NOSIG

Time: 03:00 (18:00 UTC)

Forecast

The report was made 1 hour and 0 minutes ago, at 17:00 UTC
Forecast valid from 03 at 18 UTC to 04 at 18 UTC
Wind 6 kt from the North/Northwest
Visibility 10 km or more
Scattered clouds at a height of 1700 ft

TAF: WAPP 031700Z 0318/0418 34006KT 9999 SCT017

Weather observations and forecasts of more than 4000 airports (METAR and TAF reports).

The available stations are represented by yellow and red dots on the map.

Hover mouse over dot to see the name of the station.

Then click to see weather observations and forecasts.

To change the map : click on the green buttons with a black cross to zoom in, on the green button with a dash to zoom out, or on the green arrows for adjacent maps.


METAR-TAF: